Terminal Aerodrome Forecast
Issued by NWS

Home | Current Version | Previous Version | Text Only | Print | Product List | Glossary On
Versions: 1 2 3 4 5 6 7 8 9 10 11 12 13 14 15 16 17 18
000
FTUS45 KCYS 221141
TAFAIA
TAF
KAIA 221141Z 2212/2312 28007KT P6SM FEW120
     FM221700 32017G25KT P6SM BKN050
     FM222000 34018G26KT P6SM -SHRA VCTS BKN040CB OVC070
     FM230200 35007KT P6SM BKN060=

USA.gov is the U.S. government's official web portal to all federal, state and local government web resources and services.